KHKA/HKA METAR and TAF weather

Enter ICAO airport designator
Station Type Date Time Source
KHKA METAR 2019/02/21 10:53 UTC NOAA

KHKA 211053Z AUTO 05008KT 8SM FEW029 02/01 A3015 RMK AO2 SLP210 T00220006 $


Station Type Date Time Source
KHKA Decoded METAR 2019/02/21 10:53 UTC NOAA

BLYTHEVILLE MUNICIPAL AIRPORT , AR, United States (KHKA) 35-56N 89-50W 78M
Feb 21, 2019 - 05:53 AM EST / 2019.02.21 1053 UTC
Wind: from the NE (050 degrees) at 9 MPH (8 KT):0
Visibility: 8 mile(s):0
Sky conditions: mostly clear
Temperature: 36.0 F (2.2 C)
Dew Point: 33.1 F (0.6 C)
Relative Humidity: 89%
Pressure (altimeter): 30.15 in. Hg (1020 hPa)
ob: KHKA 211053Z AUTO 05008KT 8SM FEW029 02/01 A3015 RMK AO2 SLP210 T00220006
cycle: 11

Station Type Date Time Source
KHKA TAF UTC NOAA

Error!


Example: see airport list